createdAt,value
2018-06-12T00:00:49.895Z,15.16
2018-06-12T00:03:19.081Z,15.13
2018-06-12T00:05:48.639Z,15.05
2018-06-12T00:08:17.841Z,15.14
2018-06-12T00:10:47.094Z,14.98
2018-06-12T00:13:16.294Z,15.08
2018-06-12T00:15:45.654Z,14.93
2018-06-12T00:18:15.178Z,14.91
2018-06-12T00:20:44.347Z,14.89
2018-06-12T00:23:13.624Z,14.95
2018-06-12T00:25:43.497Z,14.99
2018-06-12T00:28:12.686Z,14.95
2018-06-12T00:30:42.046Z,14.98
2018-06-12T00:33:11.710Z,15.04
2018-06-12T00:35:40.986Z,14.97
2018-06-12T00:38:10.154Z,14.92
2018-06-12T00:40:39.314Z,14.94
2018-06-12T00:43:08.491Z,14.96
2018-06-12T00:45:37.680Z,14.92
2018-06-12T00:48:07.629Z,14.90
2018-06-12T00:50:37.130Z,14.91
2018-06-12T00:53:06.626Z,14.96
2018-06-12T00:55:36.190Z,15.01
2018-06-12T00:58:05.719Z,15.01
2018-06-12T01:00:34.871Z,15.01
2018-06-12T01:03:04.279Z,15.04
2018-06-12T01:05:33.463Z,15.01
2018-06-12T01:08:02.675Z,15.02
2018-06-12T01:10:31.880Z,15.07
2018-06-12T01:13:01.098Z,15.09
2018-06-12T01:15:30.282Z,15.12
2018-06-12T01:17:59.903Z,15.06
2018-06-12T01:20:29.246Z,15.09
2018-06-12T01:22:58.658Z,15.04
2018-06-12T01:25:28.283Z,15.08
2018-06-12T01:27:57.695Z,15.07
2018-06-12T01:30:27.148Z,15.13
2018-06-12T01:32:56.319Z,15.09
2018-06-12T01:35:25.519Z,15.08
2018-06-12T01:37:54.683Z,15.05
2018-06-12T01:40:24.249Z,15.03
2018-06-12T01:42:53.662Z,15.11
2018-06-12T01:45:22.867Z,15.08
2018-06-12T01:47:52.068Z,15.03
2018-06-12T01:50:21.279Z,14.95
2018-06-12T01:52:50.478Z,14.99
2018-06-12T01:55:19.804Z,15.01
2018-06-12T01:57:48.994Z,15.04
2018-06-12T02:00:18.247Z,15.08
2018-06-12T02:02:47.436Z,15.09
2018-06-12T02:05:16.654Z,15.09
2018-06-12T02:07:45.831Z,15.14
2018-06-12T02:10:15.643Z,15.14
2018-06-12T02:12:44.808Z,15.17
2018-06-12T02:15:14.146Z,15.19
2018-06-12T02:17:43.334Z,15.25
2018-06-12T02:20:12.551Z,15.24
2018-06-12T02:22:41.762Z,15.23
2018-06-12T02:25:11.329Z,15.18
2018-06-12T02:27:40.498Z,15.21
2018-06-12T02:30:10.130Z,15.24
2018-06-12T02:32:39.303Z,15.16
2018-06-12T02:35:08.767Z,15.19
2018-06-12T02:37:37.931Z,15.07
2018-06-12T02:40:07.134Z,15.09
2018-06-12T02:42:36.308Z,15.17
2018-06-12T02:45:06.452Z,15.17
2018-06-12T02:47:35.630Z,15.10
2018-06-12T02:50:05.063Z,15.14
2018-06-12T02:52:34.242Z,15.17
2018-06-12T02:55:03.475Z,15.13
2018-06-12T02:57:32.692Z,15.20
2018-06-12T03:00:01.851Z,15.11
2018-06-12T03:02:31.595Z,15.08
2018-06-12T03:05:00.776Z,15.12
2018-06-12T03:07:29.974Z,15.14
2018-06-12T03:09:59.175Z,15.09
2018-06-12T03:12:28.371Z,15.09
2018-06-12T03:14:57.555Z,15.10
2018-06-12T03:17:26.754Z,15.11
2018-06-12T03:19:55.967Z,15.09
2018-06-12T03:22:25.306Z,15.08
2018-06-12T03:24:54.513Z,14.95
2018-06-12T03:27:23.692Z,14.96
2018-06-12T03:29:52.883Z,14.92
2018-06-12T03:32:23.094Z,14.83
2018-06-12T03:34:52.606Z,14.77
2018-06-12T03:37:21.831Z,14.75
2018-06-12T03:39:51.286Z,14.75
2018-06-12T03:42:20.498Z,14.69
2018-06-12T03:44:49.803Z,14.73
2018-06-12T03:47:18.998Z,14.66
2018-06-12T03:49:48.278Z,14.59
2018-06-12T03:52:22.935Z,14.56
2018-06-12T03:54:52.283Z,14.51
2018-06-12T03:57:21.504Z,14.47
2018-06-12T03:59:51.212Z,14.49
2018-06-12T04:02:20.430Z,14.42
2018-06-12T04:04:49.618Z,14.42
2018-06-12T04:07:18.835Z,14.31
2018-06-12T04:09:48.015Z,14.38
2018-06-12T04:12:17.227Z,14.38
2018-06-12T04:14:46.446Z,14.25
2018-06-12T04:17:15.960Z,14.30
2018-06-12T04:19:45.131Z,14.29
2018-06-12T04:22:14.442Z,14.33
2018-06-12T04:24:43.742Z,14.30
2018-06-12T04:27:12.915Z,14.34
2018-06-12T04:29:42.276Z,14.33
2018-06-12T04:32:11.938Z,14.32
2018-06-12T04:34:42.390Z,14.43
2018-06-12T04:37:11.569Z,14.41
2018-06-12T04:39:40.771Z,14.32
2018-06-12T04:42:09.948Z,14.36
2018-06-12T04:44:39.238Z,14.34
2018-06-12T04:47:08.424Z,14.33
2018-06-12T04:49:37.635Z,14.35
2018-06-12T04:52:06.958Z,14.41
2018-06-12T04:54:36.547Z,14.44
2018-06-12T04:57:05.691Z,14.59
2018-06-12T04:59:34.993Z,14.66
2018-06-12T05:02:04.190Z,14.55
2018-06-12T05:04:33.394Z,14.54
2018-06-12T05:07:02.576Z,14.50
2018-06-12T05:09:31.783Z,14.54
2018-06-12T05:12:01.311Z,14.45
2018-06-12T05:14:30.542Z,14.39
2018-06-12T05:16:59.712Z,14.48
2018-06-12T05:19:28.938Z,14.51
2018-06-12T05:21:58.446Z,14.57
2018-06-12T05:24:27.658Z,14.63
2018-06-12T05:26:56.830Z,14.71
2018-06-12T05:29:26.535Z,14.79
2018-06-12T05:31:55.935Z,14.80
2018-06-12T05:34:25.267Z,14.85
2018-06-12T05:36:54.446Z,14.92
2018-06-12T05:39:23.669Z,15.05
2018-06-12T05:41:53.306Z,15.04
2018-06-12T05:44:22.508Z,15.05
2018-06-12T05:46:51.879Z,15.05
2018-06-12T05:49:21.021Z,15.00
2018-06-12T05:51:50.219Z,15.03
2018-06-12T05:54:19.408Z,14.94
2018-06-12T05:56:48.618Z,14.81
2018-06-12T05:59:17.984Z,14.78
2018-06-12T06:01:47.166Z,14.96
2018-06-12T06:04:16.338Z,15.22
2018-06-12T06:06:45.552Z,15.18
2018-06-12T06:09:14.748Z,15.26
2018-06-12T06:11:44.403Z,15.13
2018-06-12T06:14:13.846Z,15.18
2018-06-12T06:16:43.058Z,15.36
2018-06-12T06:19:12.238Z,15.20
2018-06-12T06:21:41.444Z,15.22
2018-06-12T06:24:10.636Z,15.30
2018-06-12T06:26:39.845Z,15.38
2018-06-12T06:29:09.455Z,15.34
2018-06-12T06:31:39.346Z,15.31
2018-06-12T06:34:08.550Z,15.45
2018-06-12T06:36:38.083Z,15.71
2018-06-12T06:39:08.062Z,15.87
2018-06-12T06:41:37.274Z,15.78
2018-06-12T06:44:06.458Z,15.98
2018-06-12T06:46:35.650Z,16.20
2018-06-12T06:49:05.050Z,16.17
2018-06-12T06:51:34.262Z,16.29
2018-06-12T06:54:03.529Z,16.37
2018-06-12T06:56:32.971Z,16.11
2018-06-12T06:59:02.170Z,16.25
2018-06-12T07:01:31.391Z,16.28
2018-06-12T07:04:00.575Z,16.34
2018-06-12T07:06:29.787Z,16.73
2018-06-12T07:08:59.017Z,16.99
2018-06-12T07:11:28.419Z,17.07
2018-06-12T07:13:57.590Z,17.11
2018-06-12T07:16:27.279Z,17.21
2018-06-12T07:18:56.468Z,16.99
2018-06-12T07:21:25.678Z,16.81
2018-06-12T07:23:54.867Z,16.72
2018-06-12T07:26:24.060Z,16.79
2018-06-12T07:28:53.261Z,17.29
2018-06-12T07:31:22.516Z,17.38
2018-06-12T07:33:51.942Z,17.43
2018-06-12T07:36:21.369Z,17.25
2018-06-12T07:38:50.907Z,17.23
2018-06-12T07:41:20.080Z,17.17
2018-06-12T07:43:49.302Z,17.13
2018-06-12T07:46:18.495Z,17.14
2018-06-12T07:48:47.695Z,17.10
2018-06-12T07:51:16.879Z,16.84
2018-06-12T07:53:46.071Z,16.96
2018-06-12T07:56:15.242Z,16.85
2018-06-12T07:58:44.439Z,16.93
2018-06-12T08:01:13.643Z,16.67
2018-06-12T08:03:42.859Z,16.61
2018-06-12T08:06:12.020Z,16.47
2018-06-12T08:08:41.443Z,16.46
2018-06-12T08:11:10.623Z,16.51
2018-06-12T08:13:39.844Z,16.47
2018-06-12T08:16:09.026Z,16.45
2018-06-12T08:18:38.427Z,16.33
2018-06-12T08:21:07.658Z,16.38
2018-06-12T08:23:36.882Z,16.11
2018-06-12T08:26:06.055Z,16.19
2018-06-12T08:28:35.274Z,16.06
2018-06-12T08:31:04.464Z,16.20
2018-06-12T08:33:33.670Z,16.27
2018-06-12T08:36:03.030Z,16.67
2018-06-12T08:38:32.234Z,16.84
2018-06-12T08:41:01.416Z,16.97
2018-06-12T08:43:30.638Z,17.17
2018-06-12T08:46:00.008Z,17.55
2018-06-12T08:48:29.205Z,17.71
2018-06-12T08:50:58.415Z,17.69
2018-06-12T08:53:27.586Z,17.85
2018-06-12T08:55:56.778Z,17.68
2018-06-12T08:58:26.032Z,17.18
2018-06-12T09:00:55.230Z,17.11
2018-06-12T09:03:24.415Z,16.81
2018-06-12T09:05:53.615Z,16.75
2018-06-12T09:08:22.831Z,16.39
2018-06-12T09:10:52.050Z,16.31
2018-06-12T09:13:21.338Z,16.40
2018-06-12T09:15:50.535Z,16.53
2018-06-12T09:18:19.722Z,16.42
2018-06-12T09:20:49.036Z,16.68
2018-06-12T09:23:18.207Z,17.03
2018-06-12T09:25:47.855Z,17.17
2018-06-12T09:28:17.031Z,17.60
2018-06-12T09:30:46.243Z,17.61
2018-06-12T09:33:15.454Z,17.35
2018-06-12T09:35:44.690Z,17.25
2018-06-12T09:38:14.341Z,17.39
2018-06-12T09:40:43.575Z,17.47
2018-06-12T09:43:12.795Z,17.52
2018-06-12T09:45:41.982Z,17.36
2018-06-12T09:48:11.166Z,17.37
2018-06-12T09:50:40.387Z,17.05
2018-06-12T09:53:09.563Z,16.96
2018-06-12T09:55:38.747Z,16.92
2018-06-12T09:58:07.966Z,16.75
2018-06-12T10:00:42.387Z,16.79
2018-06-12T10:03:11.636Z,16.72
2018-06-12T10:05:40.867Z,16.80
2018-06-12T10:08:10.128Z,16.95
2018-06-12T10:10:39.313Z,17.29
2018-06-12T10:13:08.635Z,17.35
2018-06-12T10:15:38.137Z,17.46
2018-06-12T10:18:07.350Z,17.75
2018-06-12T10:20:37.047Z,17.83
2018-06-12T10:23:06.243Z,18.28
2018-06-12T10:25:35.423Z,18.18
2018-06-12T10:28:04.675Z,18.38
2018-06-12T10:30:34.085Z,18.11
2018-06-12T10:33:03.311Z,18.05
2018-06-12T10:35:32.651Z,18.09
2018-06-12T10:38:01.875Z,18.18
2018-06-12T10:40:31.046Z,18.09
2018-06-12T10:43:00.241Z,18.06
2018-06-12T10:45:29.439Z,18.30
2018-06-12T10:47:58.642Z,18.67
2018-06-12T10:50:28.031Z,18.54
2018-06-12T10:52:57.236Z,18.89
2018-06-12T10:55:26.658Z,19.10
2018-06-12T10:57:56.078Z,19.15
2018-06-12T11:00:25.259Z,19.43
2018-06-12T11:02:54.495Z,19.36
2018-06-12T11:05:23.687Z,18.84
2018-06-12T11:07:53.168Z,19.21
2018-06-12T11:10:22.399Z,19.14
2018-06-12T11:12:51.618Z,18.74
2018-06-12T11:15:21.164Z,18.69
2018-06-12T11:17:50.590Z,19.11
2018-06-12T11:20:19.766Z,19.11
2018-06-12T11:22:48.966Z,19.43
2018-06-12T11:25:18.155Z,19.26
2018-06-12T11:27:48.022Z,19.47
2018-06-12T11:30:17.206Z,19.60
2018-06-12T11:32:46.439Z,19.95
2018-06-12T11:35:15.694Z,19.68
2018-06-12T11:37:44.870Z,19.90
2018-06-12T11:40:14.161Z,19.75
2018-06-12T11:42:43.403Z,20.02
2018-06-12T11:45:12.583Z,20.02
2018-06-12T11:47:42.133Z,19.93
2018-06-12T11:50:11.338Z,19.70
2018-06-12T11:52:40.519Z,20.12
2018-06-12T11:55:09.709Z,20.18
2018-06-12T11:57:38.887Z,20.18
2018-06-12T12:00:08.190Z,20.56
2018-06-12T12:02:37.371Z,20.60
2018-06-12T12:05:07.053Z,21.34
2018-06-12T12:07:36.231Z,21.99
2018-06-12T12:10:05.459Z,21.66
2018-06-12T12:12:34.771Z,21.68
2018-06-12T12:15:04.155Z,22.27
2018-06-12T12:17:33.307Z,22.53
2018-06-12T12:20:02.707Z,22.85
2018-06-12T12:22:31.900Z,22.74
2018-06-12T12:25:01.235Z,23.80
2018-06-12T12:27:30.404Z,23.48
2018-06-12T12:29:59.683Z,23.67
2018-06-12T12:32:28.966Z,23.34
2018-06-12T12:34:58.167Z,23.39
2018-06-12T12:37:27.359Z,22.97
2018-06-12T12:39:56.568Z,22.93
2018-06-12T12:42:26.248Z,22.49
2018-06-12T12:44:55.439Z,22.57
2018-06-12T12:47:24.607Z,21.67
2018-06-12T12:49:54.627Z,21.47
2018-06-12T12:52:23.782Z,21.06
2018-06-12T12:54:52.982Z,20.64
2018-06-12T12:57:22.167Z,20.67
2018-06-12T12:59:51.416Z,20.69
2018-06-12T13:02:20.768Z,20.98
2018-06-12T13:04:50.139Z,21.09
2018-06-12T13:07:19.582Z,21.29
2018-06-12T13:09:48.750Z,21.37
2018-06-12T13:12:18.247Z,21.29
2018-06-12T13:14:47.458Z,21.55
2018-06-12T13:17:16.670Z,21.94
2018-06-12T13:19:45.810Z,22.00
2018-06-12T13:22:15.009Z,22.22
2018-06-12T13:24:44.204Z,22.76
2018-06-12T13:27:13.913Z,22.15
2018-06-12T13:29:43.083Z,22.58
2018-06-12T13:32:12.282Z,21.99
2018-06-12T13:34:41.442Z,22.30
2018-06-12T13:37:10.633Z,22.60
2018-06-12T13:39:39.807Z,22.38
2018-06-12T13:42:08.999Z,22.51
2018-06-12T13:44:38.230Z,22.10
2018-06-12T13:47:07.434Z,21.80
2018-06-12T13:49:36.615Z,22.25
2018-06-12T13:52:05.827Z,22.27
2018-06-12T13:54:34.978Z,21.64
2018-06-12T13:57:04.703Z,21.50
2018-06-12T13:59:34.379Z,21.20
2018-06-12T14:02:03.608Z,20.93
2018-06-12T14:04:32.778Z,20.59
2018-06-12T14:07:01.993Z,20.72
2018-06-12T14:09:31.239Z,20.81
2018-06-12T14:12:01.174Z,20.46
2018-06-12T14:14:30.339Z,20.37
2018-06-12T14:16:59.748Z,20.11
2018-06-12T14:19:28.920Z,20.10
2018-06-12T14:21:58.370Z,20.53
2018-06-12T14:24:27.511Z,20.28
2018-06-12T14:26:56.695Z,20.15
2018-06-12T14:29:26.296Z,20.40
2018-06-12T14:31:55.631Z,20.34
2018-06-12T14:34:24.814Z,20.64
2018-06-12T14:36:54.791Z,20.93
2018-06-12T14:39:24.003Z,21.31
2018-06-12T14:41:53.827Z,20.80
2018-06-12T14:44:23.155Z,20.53
2018-06-12T14:46:52.338Z,20.34
2018-06-12T14:49:21.557Z,20.21
2018-06-12T14:51:50.762Z,20.05
2018-06-12T14:54:19.954Z,19.86
2018-06-12T14:56:49.266Z,19.87
2018-06-12T14:59:18.799Z,19.36
2018-06-12T15:01:47.972Z,19.49
2018-06-12T15:04:17.165Z,19.73
2018-06-12T15:06:46.338Z,19.57
2018-06-12T15:09:15.822Z,19.29
2018-06-12T15:11:45.021Z,19.38
2018-06-12T15:14:14.210Z,19.56
2018-06-12T15:16:43.511Z,19.62
2018-06-12T15:19:12.707Z,19.29
2018-06-12T15:21:41.890Z,19.35
2018-06-12T15:24:11.634Z,19.03
2018-06-12T15:26:40.851Z,18.90
2018-06-12T15:29:10.032Z,18.89
2018-06-12T15:31:39.230Z,18.73
2018-06-12T15:34:08.434Z,18.95
2018-06-12T15:36:37.726Z,18.72
2018-06-12T15:39:08.684Z,18.82
2018-06-12T15:41:38.698Z,18.70
2018-06-12T15:44:07.902Z,18.61
2018-06-12T15:46:37.381Z,18.51
2018-06-12T15:49:06.609Z,18.41
2018-06-12T15:51:35.799Z,18.49
2018-06-12T15:54:05.532Z,18.45
2018-06-12T15:56:34.704Z,18.50
2018-06-12T15:59:03.889Z,18.14
2018-06-12T16:01:33.574Z,17.99
2018-06-12T16:04:03.330Z,17.95
2018-06-12T16:06:32.847Z,17.64
2018-06-12T16:09:02.050Z,17.29
2018-06-12T16:11:31.280Z,17.00
2018-06-12T16:14:00.483Z,17.06
2018-06-12T16:16:29.698Z,17.03
2018-06-12T16:18:58.883Z,17.06
2018-06-12T16:21:28.222Z,17.03
2018-06-12T16:23:58.245Z,17.15
2018-06-12T16:26:27.885Z,17.35
2018-06-12T16:28:57.047Z,17.42
2018-06-12T16:31:26.778Z,17.67
2018-06-12T16:33:56.405Z,17.59
2018-06-12T16:36:26.284Z,17.56
2018-06-12T16:38:55.458Z,17.64
2018-06-12T16:41:24.735Z,17.74
2018-06-12T16:43:53.863Z,17.48
2018-06-12T16:46:23.478Z,17.45
2018-06-12T16:48:53.338Z,17.53
2018-06-12T16:51:23.314Z,17.50
2018-06-12T16:53:52.515Z,17.58
2018-06-12T16:56:21.768Z,17.43
2018-06-12T16:58:50.980Z,17.74
2018-06-12T17:01:20.210Z,17.95
2018-06-12T17:03:49.415Z,17.63
2018-06-12T17:06:18.983Z,17.55
2018-06-12T17:08:48.186Z,17.74
2018-06-12T17:11:17.514Z,17.71
2018-06-12T17:13:46.743Z,17.37
2018-06-12T17:16:15.930Z,17.51
2018-06-12T17:18:45.750Z,17.86
2018-06-12T17:21:15.406Z,18.02
2018-06-12T17:23:45.106Z,17.89
2018-06-12T17:26:14.318Z,18.06
2018-06-12T17:28:43.555Z,17.72
2018-06-12T17:31:12.754Z,17.67
2018-06-12T17:33:41.914Z,17.60
2018-06-12T17:36:11.147Z,17.26
2018-06-12T17:38:40.339Z,17.00
2018-06-12T17:41:09.567Z,17.33
2018-06-12T17:43:39.294Z,17.31
2018-06-12T17:46:08.483Z,17.06
2018-06-12T17:48:37.690Z,17.02
2018-06-12T17:51:06.932Z,17.00
2018-06-12T17:53:36.107Z,16.82
2018-06-12T17:56:06.271Z,16.83
2018-06-12T17:58:35.475Z,16.73
2018-06-12T18:01:04.682Z,16.43
2018-06-12T18:03:33.890Z,16.40
2018-06-12T18:06:03.992Z,16.48
2018-06-12T18:08:33.504Z,16.61
2018-06-12T18:11:02.703Z,16.57
2018-06-12T18:13:32.081Z,16.27
2018-06-12T18:16:01.536Z,16.12
2018-06-12T18:18:31.436Z,16.15
2018-06-12T18:21:00.647Z,16.10
2018-06-12T18:23:29.863Z,15.69
2018-06-12T18:25:59.358Z,15.78
2018-06-12T18:28:28.591Z,15.85
2018-06-12T18:30:58.142Z,15.83
2018-06-12T18:33:28.003Z,15.80
2018-06-12T18:35:57.172Z,15.72
2018-06-12T18:38:27.087Z,15.78
2018-06-12T18:40:56.387Z,15.77
2018-06-12T18:43:25.598Z,15.93
2018-06-12T18:45:54.786Z,15.84
2018-06-12T18:48:24.620Z,15.92
2018-06-12T18:50:54.217Z,15.70
2018-06-12T18:53:23.711Z,15.69
2018-06-12T18:55:52.912Z,15.81
2018-06-12T18:58:22.118Z,15.73
2018-06-12T19:00:51.592Z,15.75
2018-06-12T19:03:21.216Z,15.53
2018-06-12T19:05:50.715Z,15.49
2018-06-12T19:08:20.551Z,15.46
2018-06-12T19:10:49.741Z,15.45
2018-06-12T19:13:19.391Z,15.32
2018-06-12T19:15:49.396Z,15.39
2018-06-12T19:18:18.935Z,15.44
2018-06-12T19:20:48.158Z,15.27
2018-06-12T19:23:17.691Z,15.30
2018-06-12T19:25:48.159Z,15.36
2018-06-12T19:28:17.703Z,15.23
2018-06-12T19:30:47.500Z,15.09
2018-06-12T19:33:17.020Z,15.12
2018-06-12T19:35:46.254Z,15.17
2018-06-12T19:38:15.479Z,15.13
2018-06-12T19:40:45.147Z,15.03
2018-06-12T19:43:14.343Z,14.98
2018-06-12T19:45:44.342Z,14.86
2018-06-12T19:48:13.748Z,14.81
2018-06-12T19:50:42.970Z,14.74
2018-06-12T19:53:12.604Z,14.66
2018-06-12T19:55:41.795Z,14.75
2018-06-12T19:58:12.261Z,14.73
2018-06-12T20:00:41.507Z,14.63
2018-06-12T20:03:10.871Z,14.64
2018-06-12T20:05:40.123Z,14.58
2018-06-12T20:08:09.602Z,14.51
2018-06-12T20:10:39.326Z,14.47
2018-06-12T20:13:09.385Z,14.55
2018-06-12T20:15:39.659Z,14.51
2018-06-12T20:18:09.559Z,14.50
2018-06-12T20:20:38.912Z,14.49
2018-06-12T20:23:08.845Z,14.47
2018-06-12T20:25:38.060Z,14.43
2018-06-12T20:28:07.247Z,14.34
2018-06-12T20:30:36.506Z,14.27
2018-06-12T20:33:06.616Z,14.24
2018-06-12T20:35:35.850Z,14.23
2018-06-12T20:38:05.600Z,14.22
2018-06-12T20:40:35.231Z,14.21
2018-06-12T20:43:04.508Z,14.09
2018-06-12T20:45:34.879Z,13.98
2018-06-12T20:48:04.122Z,14.13
2018-06-12T20:50:33.907Z,14.09
2018-06-12T20:53:03.082Z,14.01
2018-06-12T20:55:32.304Z,13.94
2018-06-12T20:58:01.776Z,13.95
2018-06-12T21:00:30.982Z,13.96
2018-06-12T21:03:00.477Z,13.93
2018-06-12T21:05:30.498Z,13.82
2018-06-12T21:08:00.424Z,13.89
2018-06-12T21:10:29.627Z,13.81
2018-06-12T21:12:59.080Z,13.75
2018-06-12T21:15:28.299Z,13.80
2018-06-12T21:17:57.493Z,13.83
2018-06-12T21:20:27.094Z,13.76
2018-06-12T21:22:57.071Z,13.69
2018-06-12T21:25:26.310Z,13.61
2018-06-12T21:27:55.503Z,13.56
2018-06-12T21:30:24.736Z,13.52
2018-06-12T21:32:54.545Z,13.56
2018-06-12T21:35:23.727Z,13.51
2018-06-12T21:37:53.290Z,13.57
2018-06-12T21:40:22.870Z,13.48
2018-06-12T21:42:52.360Z,13.36
2018-06-12T21:45:21.973Z,13.28
2018-06-12T21:47:51.163Z,13.18
2018-06-12T21:50:20.649Z,13.10
2018-06-12T21:52:50.706Z,13.08
2018-06-12T21:55:19.871Z,12.97
2018-06-12T21:57:49.082Z,12.91
2018-06-12T22:00:29.538Z,12.87
2018-06-12T22:02:59.019Z,12.83
2018-06-12T22:05:28.578Z,12.83
2018-06-12T22:07:58.321Z,12.80
2018-06-12T22:10:27.763Z,12.90
2018-06-12T22:12:57.394Z,12.85
2018-06-12T22:15:27.410Z,12.87
2018-06-12T22:17:56.846Z,12.90
2018-06-12T22:20:26.035Z,12.95
2018-06-12T22:22:55.463Z,12.98
2018-06-12T22:25:25.316Z,12.98
2018-06-12T22:27:54.529Z,12.94
2018-06-12T22:30:23.839Z,12.92
2018-06-12T22:32:53.075Z,12.90
2018-06-12T22:35:22.256Z,12.77
2018-06-12T22:37:51.486Z,12.68
2018-06-12T22:40:20.775Z,12.59
2018-06-12T22:42:49.991Z,12.50
2018-06-12T22:45:19.859Z,12.44
2018-06-12T22:47:49.468Z,12.42
2018-06-12T22:50:18.930Z,12.34
2018-06-12T22:52:48.744Z,12.24
2018-06-12T22:55:17.966Z,12.28
2018-06-12T22:57:47.551Z,12.34
2018-06-12T23:00:20.433Z,12.37
2018-06-12T23:02:49.878Z,12.46
2018-06-12T23:05:19.095Z,12.50
2018-06-12T23:07:48.298Z,12.59
2018-06-12T23:10:17.532Z,12.66
2018-06-12T23:12:47.063Z,12.73
2018-06-12T23:15:16.951Z,12.69
2018-06-12T23:17:46.148Z,12.81
2018-06-12T23:20:26.594Z,12.89
2018-06-12T23:22:56.159Z,12.89
2018-06-12T23:25:25.359Z,12.97
2018-06-12T23:27:54.682Z,13.02
2018-06-12T23:30:24.195Z,13.00
2018-06-12T23:32:53.691Z,13.01
2018-06-12T23:35:23.407Z,13.10
2018-06-12T23:37:52.651Z,13.06
2018-06-12T23:40:21.932Z,13.01
2018-06-12T23:42:51.411Z,13.05
2018-06-12T23:45:21.073Z,13.03
2018-06-12T23:47:50.439Z,12.96
2018-06-12T23:50:20.318Z,12.99
2018-06-12T23:52:49.519Z,12.94
2018-06-12T23:55:18.713Z,12.88
2018-06-12T23:57:47.944Z,12.89
